Time;durP1;ratioP1;P1;durP2;ratioP2;P2;SDS_P1;SDS_P2;PMS_P1;PMS_P2;Temp;Humidity;BMP_temperature;BMP_pressure;BME280_temperature;BME280_humidity;BME280_pressure;Samples;Min_cycle;Max_cycle;Signal;HPM_P1;HPM_P2
2023/12/21 05:31:50;;;;;;;0.10;0.10;;;11.50;90.20;;;;;;5233006;23;20449;-82
2023/12/21 05:34:16;;;;;;;0.10;0.10;;;11.50;90.30;;;;;;4936399;29;20023;-82
2023/12/21 05:36:41;;;;;;;0.10;0.10;;;11.50;90.30;;;;;;4938542;29;20038;-82
2023/12/21 05:39:09;;;;;;;0.10;0.10;;;11.50;90.40;;;;;;4938703;29;20038;-82
2023/12/21 05:41:34;;;;;;;0.10;0.10;;;11.50;90.30;;;;;;4951568;29;20751;-83
2023/12/21 05:44:00;;;;;;;0.10;0.10;;;11.50;90.40;;;;;;4957739;29;20032;-83
2023/12/21 05:46:25;;;;;;;0.10;0.10;;;11.50;90.40;;;;;;4957789;29;20037;-82
2023/12/21 05:48:51;;;;;;;0.10;0.10;;;11.60;90.30;;;;;;4932530;29;20027;-84
2023/12/21 05:51:17;;;;;;;0.10;0.10;;;11.60;90.30;;;;;;4929518;29;20119;-80
2023/12/21 05:53:42;;;;;;;0.10;0.10;;;11.60;90.20;;;;;;4919422;29;20020;-79
2023/12/21 05:56:08;;;;;;;0.10;0.10;;;11.60;90.20;;;;;;4919323;29;20032;-79
2023/12/21 05:58:34;;;;;;;0.10;0.10;;;11.70;90.20;;;;;;4902234;29;20123;-81
2023/12/21 06:00:59;;;;;;;0.10;0.10;;;11.60;90.20;;;;;;4920336;29;20032;-80
2023/12/21 06:03:25;;;;;;;0.10;0.10;;;11.60;90.30;;;;;;4929511;29;20031;-82
2023/12/21 06:05:51;;;;;;;0.10;0.10;;;11.70;90.20;;;;;;4932968;29;20070;-82
2023/12/21 06:08:16;;;;;;;0.10;0.10;;;11.70;90.20;;;;;;4919679;29;20032;-90
2023/12/21 06:10:42;;;;;;;0.10;0.10;;;11.70;90.10;;;;;;4919475;29;20171;-87
2023/12/21 06:13:08;;;;;;;0.10;0.10;;;11.70;90.10;;;;;;4924936;29;20035;-84
2023/12/21 06:15:33;;;;;;;0.10;0.10;;;11.70;90.10;;;;;;4928676;29;20032;-84
2023/12/21 06:17:59;;;;;;;0.10;0.10;;;11.80;90.00;;;;;;4924972;29;20820;-90
2023/12/21 06:20:24;;;;;;;0.10;0.10;;;11.80;90.00;;;;;;4936092;29;20118;-84
2023/12/21 06:22:50;;;;;;;0.10;0.10;;;11.80;90.00;;;;;;4938096;29;20107;-81
2023/12/21 06:25:16;;;;;;;0.10;0.10;;;11.70;90.00;;;;;;4931602;29;20060;-82
2023/12/21 06:27:41;;;;;;;0.10;0.10;;;11.80;90.10;;;;;;4931851;29;20036;-81
2023/12/21 06:30:07;;;;;;;0.10;0.10;;;11.80;90.10;;;;;;4937146;29;20606;-79
2023/12/21 06:32:33;;;;;;;0.10;0.10;;;11.80;90.00;;;;;;4923343;29;20040;-83
2023/12/21 06:34:59;;;;;;;0.10;0.10;;;11.80;90.00;;;;;;4920872;29;20143;-81
2023/12/21 06:37:24;;;;;;;0.10;0.10;;;11.80;90.00;;;;;;4951851;29;20035;-81
2023/12/21 06:39:50;;;;;;;0.10;0.10;;;11.80;90.00;;;;;;4937323;29;20648;-81
2023/12/21 06:42:16;;;;;;;0.10;0.10;;;11.80;90.00;;;;;;4920949;29;20027;-81
2023/12/21 06:44:42;;;;;;;0.10;0.10;;;11.80;89.90;;;;;;4939544;29;20032;-81
2023/12/21 06:47:07;;;;;;;0.00;0.00;;;11.80;90.00;;;;;;4936157;29;20032;-81
2023/12/21 06:49:33;;;;;;;0.08;0.08;;;11.80;90.00;;;;;;4938721;29;20016;-79
2023/12/21 06:51:59;;;;;;;0.10;0.10;;;11.80;90.00;;;;;;4939226;29;20091;-79
2023/12/21 06:54:24;;;;;;;0.10;0.10;;;11.80;89.90;;;;;;4924503;29;20028;-79
2023/12/21 06:56:50;;;;;;;0.10;0.10;;;11.90;89.90;;;;;;4909204;29;20659;-82
2023/12/21 06:59:15;;;;;;;0.10;0.10;;;11.80;90.00;;;;;;4925754;29;20114;-82
2023/12/21 07:01:41;;;;;;;0.10;0.10;;;11.90;89.90;;;;;;4938876;29;20090;-82
2023/12/21 07:04:08;;;;;;;0.10;0.10;;;11.90;89.80;;;;;;4918071;29;20062;-82
2023/12/21 07:06:34;;;;;;;0.10;0.10;;;11.90;89.80;;;;;;4939297;29;20028;-82
2023/12/21 07:09:00;;;;;;;0.10;0.10;;;11.90;89.80;;;;;;4938929;29;20035;-82
2023/12/21 07:11:26;;;;;;;0.10;0.10;;;11.80;89.80;;;;;;4937933;29;20069;-82
2023/12/21 07:13:52;;;;;;;0.08;0.08;;;11.90;89.90;;;;;;4939475;29;20103;-82
2023/12/21 07:16:17;;;;;;;0.10;0.10;;;11.90;89.90;;;;;;4922840;29;20114;-82
2023/12/21 07:18:43;;;;;;;0.10;0.10;;;11.90;89.90;;;;;;4922699;29;20390;-82
2023/12/21 07:21:09;;;;;;;0.10;0.10;;;11.90;89.90;;;;;;4929609;29;20036;-82
2023/12/21 07:23:35;;;;;;;0.10;0.10;;;11.90;89.70;;;;;;4903020;29;20032;-82
2023/12/21 07:26:00;;;;;;;0.10;0.10;;;11.90;89.90;;;;;;4902667;29;20543;-82
2023/12/21 07:28:28;;;;;;;0.10;0.10;;;11.90;89.80;;;;;;4920141;29;20025;-82
2023/12/21 07:30:54;;;;;;;0.10;0.10;;;11.90;89.80;;;;;;4919568;29;20111;-82
2023/12/21 07:33:19;;;;;;;0.10;0.10;;;11.90;89.80;;;;;;4910421;29;20024;-82
2023/12/21 07:35:45;;;;;;;0.10;0.10;;;11.90;89.80;;;;;;4921694;29;20062;-82
2023/12/21 07:38:10;;;;;;;0.10;0.10;;;11.90;89.90;;;;;;4928281;29;20063;-82
2023/12/21 07:40:36;;;;;;;0.10;0.10;;;11.90;90.00;;;;;;4936815;29;20078;-82
2023/12/21 07:43:03;;;;;;;0.10;0.10;;;11.90;90.00;;;;;;4941688;29;20103;-82
2023/12/21 07:45:28;;;;;;;0.10;0.10;;;12.00;90.00;;;;;;4918473;29;20103;-82
2023/12/21 07:47:54;;;;;;;0.10;0.10;;;12.00;90.00;;;;;;4924027;29;20463;-82
2023/12/21 07:50:20;;;;;;;0.10;0.10;;;12.00;89.90;;;;;;4915034;29;20100;-82
2023/12/21 07:52:45;;;;;;;0.00;0.00;;;12.00;89.90;;;;;;4918734;29;20416;-83
2023/12/21 07:55:11;;;;;;;0.00;0.00;;;12.00;89.90;;;;;;4925542;29;20067;-83
2023/12/21 07:57:37;;;;;;;0.10;0.10;;;12.00;90.00;;;;;;4925648;29;20552;-82
2023/12/21 08:00:04;;;;;;;0.10;0.10;;;12.00;89.90;;;;;;4924608;29;20044;-82
2023/12/21 08:02:29;;;;;;;0.10;0.10;;;12.00;89.90;;;;;;4927791;29;20042;-83
2023/12/21 08:04:55;;;;;;;0.10;0.10;;;12.00;89.90;;;;;;4945495;29;20111;-82
2023/12/21 08:07:21;;;;;;;0.10;0.10;;;12.00;89.90;;;;;;4945962;29;20498;-82
2023/12/21 08:09:46;;;;;;;0.10;0.10;;;12.00;89.90;;;;;;4945409;29;20027;-83
2023/12/21 08:12:14;;;;;;;0.10;0.10;;;12.00;89.90;;;;;;4934566;29;20035;-82
2023/12/21 08:14:40;;;;;;;0.10;0.10;;;12.00;89.80;;;;;;4926340;29;20025;-82
2023/12/21 08:17:09;;;;;;;0.10;0.10;;;12.00;89.70;;;;;;4908855;29;20042;-82
2023/12/21 08:19:37;;;;;;;0.10;0.10;;;12.10;89.60;;;;;;4926466;29;20032;-82
2023/12/21 08:22:03;;;;;;;0.08;0.08;;;12.10;89.60;;;;;;4926891;29;20052;-82
2023/12/21 08:24:28;;;;;;;0.10;0.10;;;12.10;89.50;;;;;;4926344;29;20376;-82
2023/12/21 08:26:54;;;;;;;0.10;0.10;;;12.10;89.50;;;;;;4926716;29;20575;-82
2023/12/21 08:29:19;;;;;;;0.10;0.10;;;12.10;89.40;;;;;;4925275;29;20039;-83
2023/12/21 08:31:45;;;;;;;0.10;0.10;;;12.20;89.30;;;;;;4926107;29;20111;-82
2023/12/21 08:34:12;;;;;;;0.10;0.10;;;12.20;89.30;;;;;;4940330;29;20043;-82
2023/12/21 08:36:37;;;;;;;0.10;0.10;;;12.20;89.20;;;;;;4941656;29;20040;-82
2023/12/21 08:39:04;;;;;;;0.10;0.10;;;12.20;89.10;;;;;;4925302;29;20032;-82
2023/12/21 08:41:29;;;;;;;0.10;0.10;;;12.30;88.90;;;;;;4956750;28;20030;-82
2023/12/21 08:43:55;;;;;;;0.10;0.10;;;12.30;88.70;;;;;;4936262;29;20387;-82
2023/12/21 08:46:21;;;;;;;0.00;0.00;;;12.30;88.80;;;;;;4929719;29;20101;-82
2023/12/21 08:48:46;;;;;;;0.10;0.10;;;12.30;88.70;;;;;;4944039;29;20430;-82
2023/12/21 08:51:14;;;;;;;0.10;0.10;;;12.30;88.50;;;;;;4937846;29;20029;-82
2023/12/21 08:53:39;;;;;;;0.00;0.00;;;12.30;88.60;;;;;;4925295;29;20103;-82
2023/12/21 08:56:05;;;;;;;0.10;0.10;;;12.30;88.50;;;;;;4927458;29;20070;-82
2023/12/21 08:58:31;;;;;;;0.00;0.00;;;12.30;88.40;;;;;;4925287;29;20087;-82
2023/12/21 09:00:58;;;;;;;0.10;0.10;;;12.40;88.50;;;;;;4925036;29;20040;-81
2023/12/21 09:03:24;;;;;;;0.10;0.10;;;12.30;88.40;;;;;;4933644;29;20193;-82
2023/12/21 09:05:50;;;;;;;0.10;0.10;;;12.40;88.30;;;;;;4932814;29;20063;-82
2023/12/21 09:08:16;;;;;;;0.10;0.10;;;12.30;88.20;;;;;;4923370;29;20032;-83
2023/12/21 09:10:41;;;;;;;0.10;0.10;;;12.40;88.20;;;;;;4908449;29;20067;-82
2023/12/21 09:13:07;;;;;;;0.10;0.10;;;12.30;88.20;;;;;;4923214;29;20479;-83
2023/12/21 09:15:33;;;;;;;0.10;0.10;;;12.40;88.20;;;;;;4922906;29;20024;-83
2023/12/21 09:17:58;;;;;;;0.10;0.10;;;12.40;88.30;;;;;;4922308;29;20110;-83
2023/12/21 09:20:25;;;;;;;0.10;0.10;;;12.40;88.50;;;;;;4921956;29;20024;-82
2023/12/21 09:22:50;;;;;;;0.10;0.10;;;12.50;88.50;;;;;;4923100;29;20517;-83
2023/12/21 09:25:18;;;;;;;0.10;0.10;;;12.40;88.60;;;;;;4920525;29;20067;-82
2023/12/21 09:27:44;;;;;;;0.10;0.10;;;12.50;88.60;;;;;;4922741;29;20035;-82
2023/12/21 09:30:10;;;;;;;0.10;0.10;;;12.50;88.60;;;;;;4921635;29;20032;-83
2023/12/21 09:32:35;;;;;;;0.10;0.10;;;12.50;88.60;;;;;;4924260;29;20040;-83
2023/12/21 09:35:01;;;;;;;0.10;0.10;;;12.50;88.60;;;;;;4940645;29;20086;-83
2023/12/21 09:37:26;;;;;;;0.10;0.10;;;12.60;88.60;;;;;;4940671;29;20087;-82
2023/12/21 09:39:53;;;;;;;0.10;0.10;;;12.50;88.60;;;;;;4940289;29;20027;-82
2023/12/21 09:42:19;;;;;;;0.00;0.00;;;12.50;88.60;;;;;;4946437;29;20027;-83
2023/12/21 09:44:47;;;;;;;0.10;0.10;;;12.50;88.70;;;;;;4940537;29;20031;-83
2023/12/21 09:47:16;;;;;;;0.10;0.10;;;12.50;88.80;;;;;;4927240;29;20032;-83
2023/12/21 09:49:44;;;;;;;0.10;0.10;;;12.50;88.80;;;;;;4939910;29;20039;-83
2023/12/21 09:52:10;;;;;;;0.00;0.00;;;12.50;88.80;;;;;;4940395;29;20020;-83
2023/12/21 09:54:37;;;;;;;0.10;0.10;;;12.50;89.00;;;;;;4940235;29;20387;-83
2023/12/21 09:57:04;;;;;;;0.10;0.10;;;12.50;88.90;;;;;;4927724;29;20419;-83
2023/12/21 09:59:32;;;;;;;0.10;0.10;;;12.50;89.00;;;;;;4921111;29;20115;-83
2023/12/21 10:01:57;;;;;;;0.10;0.10;;;12.50;89.10;;;;;;4921571;29;20508;-83
2023/12/21 10:04:23;;;;;;;0.10;0.10;;;12.60;89.00;;;;;;4937331;29;20093;-83
2023/12/21 10:06:49;;;;;;;0.10;0.10;;;12.60;89.10;;;;;;4923603;29;20036;-82
2023/12/21 10:09:17;;;;;;;0.10;0.10;;;12.60;88.90;;;;;;4919831;29;20033;-83
2023/12/21 10:11:43;;;;;;;0.00;0.00;;;12.60;89.00;;;;;;4921963;29;20024;-83
2023/12/21 10:14:15;;;;;;;0.10;0.10;;;12.70;89.00;;;;;;4922240;29;20491;-83
2023/12/21 10:16:41;;;;;;;0.10;0.10;;;12.60;88.80;;;;;;4922084;29;20450;-83
2023/12/21 10:19:11;;;;;;;0.10;0.10;;;12.60;88.90;;;;;;4936323;29;20148;-83
2023/12/21 10:21:41;;;;;;;0.10;0.10;;;12.60;88.80;;;;;;4939996;29;20494;-83
2023/12/21 10:24:08;;;;;;;0.10;0.10;;;12.60;88.80;;;;;;4923152;29;20056;-83
2023/12/21 10:26:47;;;;;;;0.10;0.10;;;12.60;88.40;;;;;;4919522;29;20043;-83
2023/12/21 10:29:15;;;;;;;0.10;0.10;;;12.70;87.90;;;;;;4921764;29;20039;-83
2023/12/21 10:31:45;;;;;;;0.10;0.10;;;12.80;87.50;;;;;;4921363;29;20443;-82
2023/12/21 10:34:12;;;;;;;0.10;0.10;;;12.80;86.30;;;;;;4936451;29;20031;-83
2023/12/21 10:36:39;;;;;;;0.10;0.10;;;12.90;86.80;;;;;;4934531;29;20024;-83
2023/12/21 10:39:04;;;;;;;0.10;0.10;;;12.90;86.30;;;;;;4926737;29;20032;-82
2023/12/21 10:41:30;;;;;;;0.10;0.10;;;12.90;86.30;;;;;;4955190;29;20024;-82
2023/12/21 10:43:56;;;;;;;0.08;0.08;;;12.90;86.00;;;;;;4938910;29;20040;-82
2023/12/21 10:46:22;;;;;;;0.10;0.10;;;12.80;85.30;;;;;;4920525;29;20046;-82
2023/12/21 10:48:49;;;;;;;0.10;0.10;;;12.80;85.40;;;;;;4931771;29;20024;-82
2023/12/21 10:51:16;;;;;;;0.10;0.10;;;12.90;85.50;;;;;;4939274;29;20103;-83
2023/12/21 10:53:42;;;;;;;0.10;0.10;;;12.90;84.90;;;;;;4921255;29;20605;-82
2023/12/21 10:56:09;;;;;;;0.10;0.10;;;13.00;85.00;;;;;;4903203;29;20031;-82
2023/12/21 10:58:35;;;;;;;0.10;0.10;;;13.10;85.00;;;;;;4920153;29;20040;-83
2023/12/21 11:01:05;;;;;;;0.10;0.10;;;13.20;84.40;;;;;;4906858;29;20036;-83
2023/12/21 11:03:32;;;;;;;0.10;0.10;;;13.20;84.00;;;;;;4929364;29;20039;-82
2023/12/21 11:05:59;;;;;;;0.10;0.10;;;13.20;83.70;;;;;;4932010;29;20083;-83
2023/12/21 11:08:25;;;;;;;0.00;0.00;;;13.20;83.50;;;;;;4903226;29;20087;-82
2023/12/21 11:10:52;;;;;;;0.10;0.10;;;13.20;83.20;;;;;;4919972;29;20518;-82
2023/12/21 11:13:18;;;;;;;0.10;0.10;;;13.20;83.30;;;;;;4923223;29;20110;-83
2023/12/21 11:15:44;;;;;;;0.10;0.10;;;13.20;83.10;;;;;;4921771;29;20082;-83
2023/12/21 11:18:16;;;;;;;0.10;0.10;;;13.10;82.90;;;;;;4932909;29;20020;-80
2023/12/21 11:20:46;;;;;;;0.10;0.10;;;13.20;82.90;;;;;;4939365;29;20030;-78
2023/12/21 11:23:12;;;;;;;0.15;0.15;;;13.20;82.90;;;;;;4923044;29;20040;-83
2023/12/21 11:25:38;;;;;;;0.10;0.10;;;13.20;82.90;;;;;;4917242;29;20056;-83
2023/12/21 11:28:04;;;;;;;0.10;0.10;;;13.10;82.80;;;;;;4919177;29;20134;-83
2023/12/21 11:30:32;;;;;;;0.10;0.10;;;13.10;82.70;;;;;;4919795;29;20060;-83
2023/12/21 11:33:09;;;;;;;0.10;0.10;;;13.10;82.50;;;;;;4925690;29;20398;-82
2023/12/21 11:35:35;;;;;;;0.10;0.10;;;13.20;82.40;;;;;;4939288;29;20024;-83
2023/12/21 11:38:07;;;;;;;0.20;0.20;;;13.10;82.20;;;;;;4922392;29;20026;-83
2023/12/21 11:40:36;;;;;;;0.20;0.20;;;13.20;82.30;;;;;;4937936;29;20572;-85
2023/12/21 11:43:06;;;;;;;0.15;0.15;;;13.20;82.10;;;;;;4957873;29;20015;-83
2023/12/21 11:45:32;;;;;;;0.10;0.10;;;13.20;82.20;;;;;;4956812;29;20031;-83
2023/12/21 11:48:00;;;;;;;0.10;0.10;;;13.20;81.90;;;;;;4938502;29;20023;-84
2023/12/21 11:50:30;;;;;;;0.10;0.10;;;13.10;82.00;;;;;;4911317;29;20479;-81
2023/12/21 11:53:10;;;;;;;0.13;0.13;;;13.00;82.20;;;;;;4919886;29;20019;-85
2023/12/21 11:55:43;;;;;;;0.10;0.10;;;13.10;82.50;;;;;;4902860;29;20576;-90
2023/12/21 11:58:16;;;;;;;0.10;0.10;;;13.20;82.60;;;;;;4920050;29;20035;-82
2023/12/21 12:00:49;;;;;;;0.10;0.10;;;13.20;82.30;;;;;;4919508;29;20032;-83
2023/12/21 12:03:16;;;;;;;0.10;0.10;;;13.20;82.30;;;;;;4925548;29;20042;-80
2023/12/21 12:05:42;;;;;;;0.10;0.10;;;13.10;82.10;;;;;;4938642;29;20039;-83
2023/12/21 12:08:08;;;;;;;0.10;0.10;;;13.00;82.30;;;;;;4938260;29;20028;-83
2023/12/21 12:10:34;;;;;;;0.10;0.10;;;13.10;82.60;;;;;;4921253;29;20028;-84
2023/12/21 12:13:01;;;;;;;0.10;0.10;;;13.10;82.50;;;;;;4907547;29;20080;-83
2023/12/21 12:15:27;;;;;;;0.10;0.10;;;13.20;82.50;;;;;;4919592;29;20025;-83
2023/12/21 12:17:53;;;;;;;0.10;0.10;;;13.10;82.60;;;;;;4902209;29;20048;-85
2023/12/21 12:20:19;;;;;;;0.10;0.10;;;13.10;82.60;;;;;;4919351;29;20053;-80
2023/12/21 12:22:45;;;;;;;0.10;0.10;;;13.10;82.70;;;;;;4902208;29;20040;-79
2023/12/21 12:25:15;;;;;;;0.10;0.10;;;13.10;82.90;;;;;;4919306;29;20570;-81
2023/12/21 12:27:41;;;;;;;0.10;0.10;;;13.10;83.10;;;;;;4933378;29;20375;-79
2023/12/21 12:30:08;;;;;;;0.10;0.10;;;13.00;83.00;;;;;;4924859;29;20067;-80
2023/12/21 12:32:34;;;;;;;0.10;0.10;;;13.00;83.30;;;;;;4920853;29;20036;-84
2023/12/21 12:34:59;;;;;;;0.10;0.10;;;13.00;83.60;;;;;;4937759;29;20028;-81
2023/12/21 12:37:25;;;;;;;0.10;0.10;;;12.90;83.70;;;;;;4918956;29;20060;-80
2023/12/21 12:39:54;;;;;;;0.10;0.10;;;12.90;84.00;;;;;;4924392;29;20042;-80
2023/12/21 12:42:20;;;;;;;0.13;0.13;;;12.80;84.20;;;;;;4936753;29;20395;-81
2023/12/21 12:44:45;;;;;;;0.10;0.10;;;12.80;84.30;;;;;;4940778;29;20044;-81
2023/12/21 12:47:11;;;;;;;0.10;0.10;;;12.80;84.60;;;;;;4932170;29;20040;-81
2023/12/21 12:49:37;;;;;;;0.10;0.10;;;12.80;84.80;;;;;;4940411;29;20581;-81
2023/12/21 12:52:07;;;;;;;0.10;0.10;;;12.80;85.20;;;;;;4924450;29;20027;-78
2023/12/21 12:54:33;;;;;;;0.10;0.10;;;12.70;85.40;;;;;;4927693;29;20024;-81
2023/12/21 12:57:03;;;;;;;0.20;0.20;;;12.70;85.70;;;;;;4941329;29;20027;-80
2023/12/21 12:59:33;;;;;;;0.10;0.10;;;12.70;86.00;;;;;;4920321;29;20042;-81
2023/12/21 13:01:59;;;;;;;0.13;0.13;;;12.70;86.20;;;;;;4921213;29;20060;-80
2023/12/21 13:04:24;;;;;;;0.10;0.10;;;12.70;86.30;;;;;;4938538;29;20521;-80
2023/12/21 13:06:51;;;;;;;0.10;0.10;;;12.60;86.40;;;;;;4936447;29;20024;-80
2023/12/21 13:09:17;;;;;;;0.10;0.10;;;12.70;86.50;;;;;;4935297;29;20028;-80
2023/12/21 13:11:42;;;;;;;0.10;0.10;;;12.60;86.40;;;;;;4941141;29;20028;-81
2023/12/21 13:14:10;;;;;;;0.10;0.10;;;12.70;86.50;;;;;;4932538;29;20039;-80
2023/12/21 13:16:37;;;;;;;0.10;0.10;;;12.70;86.30;;;;;;4905126;29;20088;-80
2023/12/21 13:19:04;;;;;;;0.10;0.10;;;12.80;86.40;;;;;;4905170;29;20043;-80
2023/12/21 13:21:31;;;;;;;0.10;0.10;;;12.80;86.40;;;;;;4921956;29;20096;-79
2023/12/21 13:23:57;;;;;;;0.10;0.10;;;12.80;86.40;;;;;;4905080;29;20046;-80
2023/12/21 13:26:22;;;;;;;0.10;0.10;;;12.80;86.40;;;;;;4921952;29;20110;-78
2023/12/21 13:28:49;;;;;;;0.10;0.10;;;12.80;86.20;;;;;;4921618;29;20048;-81
2023/12/21 13:31:15;;;;;;;0.10;0.10;;;12.90;86.10;;;;;;4910387;29;20119;-81
2023/12/21 13:33:41;;;;;;;0.10;0.10;;;12.90;86.10;;;;;;4932934;29;20032;-81
2023/12/21 13:36:07;;;;;;;0.10;0.10;;;12.90;86.00;;;;;;4940808;29;20027;-81
2023/12/21 13:38:32;;;;;;;0.10;0.10;;;12.90;85.90;;;;;;4940824;29;20494;-81
2023/12/21 13:40:58;;;;;;;0.10;0.10;;;12.90;85.90;;;;;;4938171;29;20035;-81
2023/12/21 13:43:27;;;;;;;0.10;0.10;;;12.80;85.90;;;;;;4921684;29;20032;-82
2023/12/21 13:45:54;;;;;;;0.10;0.10;;;12.80;85.90;;;;;;4936520;29;20043;-81
2023/12/21 13:48:21;;;;;;;0.10;0.10;;;12.80;86.00;;;;;;4943668;29;20028;-82
2023/12/21 13:50:47;;;;;;;0.10;0.10;;;12.80;85.90;;;;;;4935085;29;20032;-80
2023/12/21 13:53:12;;;;;;;0.10;0.10;;;12.70;85.90;;;;;;4935962;29;20031;-80
2023/12/21 13:55:38;;;;;;;0.10;0.10;;;12.70;86.00;;;;;;4924742;29;20032;-79
2023/12/21 13:58:04;;;;;;;0.10;0.10;;;12.70;86.10;;;;;;4921076;29;20021;-81
2023/12/21 14:00:30;;;;;;;0.10;0.10;;;12.70;86.10;;;;;;4921323;29;20538;-81
2023/12/21 14:02:56;;;;;;;0.10;0.10;;;12.70;86.00;;;;;;4925799;29;20059;-81
2023/12/21 14:05:22;;;;;;;0.10;0.10;;;12.70;86.10;;;;;;4921902;29;20032;-81
2023/12/21 14:07:47;;;;;;;0.10;0.10;;;12.70;86.00;;;;;;4921139;29;20043;-82
2023/12/21 14:10:13;;;;;;;0.10;0.10;;;12.70;85.60;;;;;;4920933;29;20482;-82
2023/12/21 14:12:39;;;;;;;0.10;0.10;;;12.70;85.40;;;;;;4921258;29;20056;-82
2023/12/21 14:15:05;;;;;;;0.10;0.10;;;12.70;85.30;;;;;;4919819;29;20028;-81
2023/12/21 14:17:31;;;;;;;0.10;0.10;;;12.70;85.30;;;;;;4920884;29;20024;-81
2023/12/21 14:19:56;;;;;;;0.10;0.10;;;12.70;85.10;;;;;;4919632;29;20123;-81
2023/12/21 14:22:22;;;;;;;0.10;0.10;;;12.60;85.20;;;;;;4920959;29;20032;-81
2023/12/21 14:24:47;;;;;;;0.10;0.10;;;12.70;85.20;;;;;;4937878;29;20032;-81
2023/12/21 14:27:17;;;;;;;0.10;0.10;;;12.70;84.90;;;;;;4930364;29;20036;-82
2023/12/21 14:29:43;;;;;;;0.10;0.10;;;12.70;85.10;;;;;;4920695;29;20040;-82
2023/12/21 14:32:10;;;;;;;0.10;0.10;;;12.70;85.20;;;;;;4920675;29;20519;-81
2023/12/21 14:34:35;;;;;;;0.10;0.10;;;12.70;85.20;;;;;;4926690;29;20032;-82
2023/12/21 14:37:01;;;;;;;0.10;0.10;;;12.70;85.20;;;;;;4920903;29;20035;-82
2023/12/21 14:39:27;;;;;;;0.10;0.10;;;12.70;85.30;;;;;;4920627;29;20049;-82
2023/12/21 14:41:53;;;;;;;0.10;0.10;;;12.70;85.20;;;;;;4925384;29;20039;-81
2023/12/21 14:44:20;;;;;;;0.10;0.10;;;12.70;85.20;;;;;;4920266;29;20028;-81
2023/12/21 14:46:47;;;;;;;0.10;0.10;;;12.70;85.30;;;;;;4920571;29;20039;-81
2023/12/21 14:49:13;;;;;;;0.10;0.10;;;12.80;85.30;;;;;;4938975;29;20095;-81
2023/12/21 14:51:40;;;;;;;0.10;0.10;;;12.80;85.30;;;;;;4903518;29;20554;-82
2023/12/21 14:54:06;;;;;;;0.13;0.13;;;12.70;85.40;;;;;;4920949;29;20112;-81
2023/12/21 14:56:31;;;;;;;0.10;0.10;;;12.70;85.50;;;;;;4920128;29;20051;-82
2023/12/21 14:58:57;;;;;;;0.10;0.10;;;12.70;85.50;;;;;;4919712;29;20079;-82
2023/12/21 15:01:24;;;;;;;0.10;0.10;;;12.60;85.60;;;;;;4921740;29;20036;-82
2023/12/21 15:03:50;;;;;;;0.10;0.10;;;12.70;85.70;;;;;;4920655;29;20035;-82
2023/12/21 15:06:16;;;;;;;0.10;0.10;;;12.70;85.80;;;;;;4930128;29;20156;-81
2023/12/21 15:08:42;;;;;;;0.10;0.10;;;12.60;85.80;;;;;;4920171;29;20040;-81
2023/12/21 15:11:08;;;;;;;0.17;0.17;;;12.60;86.20;;;;;;4903709;29;20083;-82
2023/12/21 15:13:33;;;;;;;0.10;0.10;;;12.60;86.30;;;;;;4919838;29;20031;-82
2023/12/21 15:16:00;;;;;;;0.10;0.10;;;12.60;86.40;;;;;;4919969;29;20032;-82
2023/12/21 15:18:25;;;;;;;0.13;0.13;;;12.50;86.50;;;;;;4918681;29;20024;-81
2023/12/21 15:20:51;;;;;;;0.10;0.10;;;12.50;86.50;;;;;;4920404;29;20040;-81
2023/12/21 15:23:16;;;;;;;0.10;0.10;;;12.60;86.70;;;;;;4919769;29;20024;-82
2023/12/21 15:25:42;;;;;;;0.10;0.10;;;12.60;86.70;;;;;;4903041;29;20127;-81
2023/12/21 15:28:08;;;;;;;0.10;0.10;;;12.50;86.80;;;;;;4902340;29;20225;-81
2023/12/21 15:30:33;;;;;;;0.10;0.10;;;12.50;86.90;;;;;;4918526;29;20052;-81
2023/12/21 15:32:59;;;;;;;0.10;0.10;;;12.50;86.90;;;;;;4924885;29;20019;-81
2023/12/21 15:35:25;;;;;;;0.10;0.10;;;12.50;86.80;;;;;;4937709;29;20507;-81
2023/12/21 15:37:50;;;;;;;0.10;0.10;;;12.50;87.00;;;;;;4923466;29;20032;-82
2023/12/21 15:40:16;;;;;;;0.10;0.10;;;12.50;86.90;;;;;;4930574;29;20042;-82
2023/12/21 15:42:41;;;;;;;0.13;0.13;;;12.50;86.90;;;;;;4945610;29;20139;-82
2023/12/21 15:45:07;;;;;;;0.10;0.10;;;12.50;86.90;;;;;;4919478;29;20035;-82
2023/12/21 15:47:33;;;;;;;0.10;0.10;;;12.40;86.90;;;;;;4921117;29;20103;-81
2023/12/21 15:49:59;;;;;;;0.10;0.10;;;12.40;86.80;;;;;;4938553;29;20063;-82
2023/12/21 15:52:24;;;;;;;0.10;0.10;;;12.50;86.80;;;;;;4924054;29;20020;-81
2023/12/21 15:54:50;;;;;;;0.10;0.10;;;12.40;86.90;;;;;;4919607;29;20020;-82
2023/12/21 15:57:15;;;;;;;0.10;0.10;;;12.40;87.00;;;;;;4918396;29;20047;-82
2023/12/21 15:59:42;;;;;;;0.10;0.10;;;12.40;87.20;;;;;;4919867;29;20044;-82
2023/12/21 16:02:07;;;;;;;0.10;0.10;;;12.40;87.30;;;;;;4918214;29;20024;-82
2023/12/21 16:04:33;;;;;;;0.10;0.10;;;12.40;87.40;;;;;;4933370;29;20035;-81
2023/12/21 16:06:59;;;;;;;0.20;0.20;;;12.40;87.40;;;;;;4938353;29;20028;-82
2023/12/21 16:09:26;;;;;;;0.10;0.10;;;12.40;87.40;;;;;;4937091;29;20399;-82
2023/12/21 16:11:53;;;;;;;0.10;0.10;;;12.40;87.40;;;;;;4932994;29;20024;-82
2023/12/21 16:14:19;;;;;;;0.10;0.10;;;12.40;87.40;;;;;;4920038;29;20020;-82
2023/12/21 16:16:44;;;;;;;0.10;0.10;;;12.40;87.30;;;;;;4922378;29;20088;-82
2023/12/21 16:19:10;;;;;;;0.10;0.10;;;12.40;87.30;;;;;;4924702;29;20064;-82
2023/12/21 16:21:36;;;;;;;0.10;0.10;;;12.40;87.20;;;;;;4942167;29;20036;-82
2023/12/21 16:24:01;;;;;;;0.15;0.15;;;12.40;87.20;;;;;;4940984;29;20136;-82
2023/12/21 16:26:28;;;;;;;0.10;0.10;;;12.40;87.20;;;;;;4930612;29;20039;-82
2023/12/21 16:28:53;;;;;;;0.10;0.10;;;12.40;87.00;;;;;;4921337;29;20036;-81
2023/12/21 16:31:19;;;;;;;0.10;0.10;;;12.50;87.10;;;;;;4923215;29;20036;-82
2023/12/21 16:33:45;;;;;;;0.10;0.10;;;12.40;86.90;;;;;;4933998;29;20630;-81
2023/12/21 16:36:10;;;;;;;0.10;0.10;;;12.40;87.00;;;;;;4924965;29;20056;-82
2023/12/21 16:38:38;;;;;;;0.10;0.10;;;12.40;86.80;;;;;;4942019;29;20031;-82
2023/12/21 16:41:06;;;;;;;0.10;0.10;;;12.40;86.90;;;;;;4936342;29;20063;-82
2023/12/21 16:43:33;;;;;;;0.10;0.10;;;12.40;87.00;;;;;;4960734;29;20039;-82
2023/12/21 16:46:01;;;;;;;0.10;0.10;;;12.40;87.00;;;;;;4943564;29;20023;-82
2023/12/21 16:48:26;;;;;;;0.10;0.10;;;12.40;86.90;;;;;;4952048;29;20072;-81
2023/12/21 16:50:52;;;;;;;0.10;0.10;;;12.40;86.90;;;;;;4937725;29;20012;-82
2023/12/21 16:53:17;;;;;;;0.10;0.10;;;12.40;86.90;;;;;;4922363;29;20036;-82
2023/12/21 16:55:44;;;;;;;0.10;0.10;;;12.40;86.90;;;;;;4941410;29;20395;-81
2023/12/21 16:58:10;;;;;;;0.10;0.10;;;12.40;86.70;;;;;;4928187;29;20032;-81
2023/12/21 17:00:35;;;;;;;0.10;0.10;;;12.40;86.70;;;;;;4905635;29;20043;-82
2023/12/21 17:03:01;;;;;;;0.10;0.10;;;12.30;86.30;;;;;;4932871;29;20115;-81
2023/12/21 17:05:26;;;;;;;0.20;0.20;;;12.30;86.20;;;;;;4923776;29;20031;-82
2023/12/21 17:07:52;;;;;;;0.10;0.10;;;12.30;85.90;;;;;;4922939;29;20038;-81
2023/12/21 17:10:18;;;;;;;0.10;0.10;;;12.30;85.60;;;;;;4920200;29;20036;-81
2023/12/21 17:12:43;;;;;;;0.10;0.10;;;12.40;85.60;;;;;;4922367;29;20024;-82
2023/12/21 17:15:09;;;;;;;0.10;0.10;;;12.30;85.10;;;;;;4921719;29;20028;-81
2023/12/21 17:17:35;;;;;;;0.10;0.10;;;12.40;84.70;;;;;;4921593;29;20042;-81
2023/12/21 17:20:03;;;;;;;0.10;0.10;;;12.50;84.60;;;;;;4921237;29;20036;-81
2023/12/21 17:22:28;;;;;;;0.10;0.10;;;12.40;84.40;;;;;;4920054;29;20036;-82
2023/12/21 17:24:54;;;;;;;0.10;0.10;;;12.50;84.40;;;;;;4921102;29;20561;-81
2023/12/21 17:27:20;;;;;;;0.10;0.10;;;12.40;84.10;;;;;;4919342;29;20032;-77
2023/12/21 17:29:45;;;;;;;0.10;0.10;;;12.50;83.80;;;;;;4908147;29;20127;-81
2023/12/21 17:32:11;;;;;;;0.10;0.10;;;12.50;83.90;;;;;;4927691;29;20067;-81
2023/12/21 17:34:36;;;;;;;0.10;0.10;;;12.50;83.70;;;;;;4938023;29;20098;-82
2023/12/21 17:37:02;;;;;;;0.10;0.10;;;12.50;83.80;;;;;;4932467;29;20056;-82
2023/12/21 17:39:28;;;;;;;0.10;0.10;;;12.40;83.80;;;;;;4922714;29;20031;-82
2023/12/21 17:41:53;;;;;;;0.10;0.10;;;12.40;83.70;;;;;;4934963;29;20067;-81
2023/12/21 17:44:35;;;;;;;0.10;0.10;;;12.40;83.70;;;;;;4926726;29;20032;-81
2023/12/21 17:47:01;;;;;;;0.10;0.10;;;12.40;83.80;;;;;;4939212;29;20063;-82
2023/12/21 17:49:29;;;;;;;0.10;0.10;;;12.50;83.90;;;;;;4938007;29;20063;-82
2023/12/21 17:51:55;;;;;;;0.00;0.00;;;12.50;83.80;;;;;;4914629;29;20032;-82
2023/12/21 17:54:21;;;;;;;0.10;0.10;;;12.40;83.60;;;;;;4917924;29;20034;-82
2023/12/21 17:56:47;;;;;;;0.08;0.08;;;12.50;83.60;;;;;;4933608;29;20111;-82
2023/12/21 17:59:12;;;;;;;0.10;0.10;;;12.50;83.60;;;;;;4912589;29;20159;-81
2023/12/21 18:01:38;;;;;;;0.10;0.10;;;12.50;83.70;;;;;;4914415;29;20034;-80
2023/12/21 18:04:04;;;;;;;0.10;0.10;;;12.50;83.70;;;;;;4936930;29;20027;-81
2023/12/21 18:06:29;;;;;;;0.08;0.08;;;12.50;83.70;;;;;;4913130;29;20028;-80
2023/12/21 18:08:55;;;;;;;0.10;0.10;;;12.40;83.70;;;;;;4927575;29;20095;-81
2023/12/21 18:11:20;;;;;;;0.10;0.10;;;12.40;83.90;;;;;;4931902;29;20045;-81
2023/12/21 18:13:46;;;;;;;0.10;0.10;;;12.50;83.90;;;;;;4936229;29;20030;-81